Terminal Aerodrome Forecast
Issued by NWS Twin Cities, MN

Home | Current Version | Previous Version | Graphics & Text | Print | Product List | Glossary On
Versions: 1 2 3 4 5 6 7 8 9 10 11 12 13 14 15 16 17 18 19 20 21 22 23 24 25 26 27 28 29 30 31 32
000
FTUS43 KMPX 262300
TAFMSP
TAF
KMSP 262331Z 2700/2806 35011KT P6SM SCT025 OVC060
     FM270400 32010KT P6SM SCT080
     FM271500 31004KT P6SM SCT200
     FM272200 20004KT P6SM BKN150=

USA.gov is the U.S. government's official web portal to all federal, state and local government web resources and services.